Time;durP1;ratioP1;P1;durP2;ratioP2;P2;SDS_P1;SDS_P2;PMS_P1;PMS_P2;Temp;Humidity;BMP_temperature;BMP_pressure;BME280_temperature;BME280_humidity;BME280_pressure;Samples;Min_cycle;Max_cycle;Signal;HPM_P1;HPM_P2
2022/08/07 00:00:58;;;;;;;;;;;;;;;;;;4930017;29;19957;-72
2022/08/07 00:03:27;;;;;;;;;;;;;;;;;;4911935;29;19928;-72
2022/08/07 00:05:54;;;;;;;;;;;;;;;;;;4890965;29;19971;-71
2022/08/07 00:08:21;;;;;;;;;;;;;;;;;;4892172;29;19954;-72
2022/08/07 00:10:48;;;;;;;;;;;;;;;;;;4892651;29;19927;-72
2022/08/07 00:13:23;;;;;;;;;;;;;;;;;;4893561;29;19961;-72
2022/08/07 00:15:52;;;;;;;;;;;;;;;;;;4895733;29;19938;-71
2022/08/07 00:18:19;;;;;;;;;;;;;;;;;;4892715;29;20022;-71
2022/08/07 00:20:50;;;;;;;;;;;;;;;;;;4899398;29;19958;-71
2022/08/07 00:23:17;;;;;;;;;;;;;;;;;;4906682;29;20018;-72
2022/08/07 00:25:47;;;;;;;;;;;;;;;;;;4897778;29;19927;-72
2022/08/07 00:28:25;;;;;;;;;;;;;;;;;;4895029;29;19932;-72
2022/08/07 00:30:59;;;;;;;;;;;;;;;;;;4890959;29;20519;-72
2022/08/07 00:33:27;;;;;;;;;;;;;;;;;;4892143;29;20303;-72
2022/08/07 00:35:54;;;;;;;;;;;;;;;;;;4906633;29;19939;-72
2022/08/07 00:38:22;;;;;;;;;;;;;;;;;;4889620;29;19927;-72
2022/08/07 00:40:57;;;;;;;;;;;;;;;;;;4903234;29;19927;-72
2022/08/07 00:43:24;;;;;;;;;;;;;;;;;;4910871;29;19935;-72
2022/08/07 00:46:12;;;;;;;;;;;;;;;;;;4909383;29;19938;-72
2022/08/07 00:48:39;;;;;;;;;;;;;;;;;;4909047;29;19978;-72
2022/08/07 00:51:08;;;;;;;;;;;;;;;;;;4899214;29;19934;-72
2022/08/07 00:53:35;;;;;;;;;;;;;;;;;;4895065;29;20288;-72
2022/08/07 00:56:05;;;;;;;;;;;;;;;;;;4891548;29;20310;-72
2022/08/07 00:58:40;;;;;;;;;;;;;;;;;;4890190;29;20252;-72
2022/08/07 01:01:07;;;;;;;;;;;;;;;;;;4890227;29;19932;-72
2022/08/07 01:03:34;;;;;;;;;;;;;;;;;;4891925;29;19931;-72
2022/08/07 01:06:21;;;;;;;;;;;;;;;;;;4915339;23;20332;-81
2022/08/07 01:08:49;;;;;;;;;;;;;;;;;;4910938;29;19932;-83
2022/08/07 01:11:19;;;;;;;;;;;;;;;;;;4891704;29;20047;-83
2022/08/07 01:14:07;;;;;;;;;;;;;;;;;;4894661;29;20145;-82
2022/08/07 01:16:35;;;;;;;;;;;;;;;;;;4894309;29;19939;-83
2022/08/07 01:19:02;;;;;;;;;;;;;;;;;;4915263;29;19931;-83
2022/08/07 01:21:30;;;;;;;;;;;;;;;;;;4902152;29;19938;-83
2022/08/07 01:23:58;;;;;;;;;;;;;;;;;;4921697;29;19931;-83
2022/08/07 01:26:26;;;;;;;;;;;;;;;;;;4918291;29;19989;-81
2022/08/07 01:28:53;;;;;;;;;;;;;;;;;;4919521;29;20013;-83
2022/08/07 01:31:27;;;;;;;;;;;;;;;;;;4918335;29;20449;-84
2022/08/07 01:34:08;;;;;;;;;;;;;;;;;;4897683;29;20247;-83
2022/08/07 01:36:39;;;;;;;;;;;;;;;;;;4914163;29;20408;-83
2022/08/07 01:39:13;;;;;;;;;;;;;;;;;;4921416;29;19931;-83
2022/08/07 01:41:45;;;;;;;;;;;;;;;;;;4886266;29;20362;-83
2022/08/07 01:44:33;;;;;;;;;;;;;;;;;;4898945;29;19950;-84
2022/08/07 01:47:00;;;;;;;;;;;;;;;;;;4915110;29;19936;-83
2022/08/07 01:49:48;;;;;;;;;;;;;;;;;;4893440;29;19927;-83
2022/08/07 01:52:15;;;;;;;;;;;;;;;;;;4911350;29;20012;-83
2022/08/07 01:54:42;;;;;;;;;;;;;;;;;;4908677;29;19936;-83
2022/08/07 01:57:13;;;;;;;;;;;;;;;;;;4891582;29;19931;-82
2022/08/07 01:59:50;;;;;;;;;;;;;;;;;;4920669;29;20377;-83
2022/08/07 02:02:17;;;;;;;;;;;;;;;;;;4888272;29;20211;-83
2022/08/07 02:05:01;;;;;;;;;;;;;;;;;;4904125;29;20448;-82
2022/08/07 02:07:34;;;;;;;;;;;;;;;;;;4914699;29;20034;-83
2022/08/07 02:10:11;;;;;;;;;;;;;;;;;;4900604;29;19959;-83
2022/08/07 02:12:41;;;;;;;;;;;;;;;;;;4915606;29;19927;-83
2022/08/07 02:15:11;;;;;;;;;;;;;;;;;;4899403;29;20481;-83
2022/08/07 02:17:40;;;;;;;;;;;;;;;;;;4915230;29;19938;-83
2022/08/07 02:20:07;;;;;;;;;;;;;;;;;;4883092;29;20298;-83
2022/08/07 02:22:43;;;;;;;;;;;;;;;;;;4878115;29;19928;-83
2022/08/07 02:25:11;;;;;;;;;;;;;;;;;;4895913;29;19931;-84
2022/08/07 02:27:40;;;;;;;;;;;;;;;;;;4876722;29;19928;-83
2022/08/07 02:30:08;;;;;;;;;;;;;;;;;;4892831;29;19936;-83
2022/08/07 02:32:36;;;;;;;;;;;;;;;;;;4911857;29;19927;-83
2022/08/07 02:35:07;;;;;;;;;;;;;;;;;;4906394;29;19932;-83
2022/08/07 02:37:35;;;;;;;;;;;;;;;;;;4911692;29;19963;-83
2022/08/07 02:40:05;;;;;;;;;;;;;;;;;;4892503;29;19932;-83
2022/08/07 02:42:54;;;;;;;;;;;;;;;;;;4894334;29;19934;-83
2022/08/07 02:45:22;;;;;;;;;;;;;;;;;;4896107;29;19938;-83
2022/08/07 02:48:09;;;;;;;;;;;;;;;;;;4909671;29;20325;-83
2022/08/07 02:50:43;;;;;;;;;;;;;;;;;;4914444;29;19935;-83
2022/08/07 02:53:10;;;;;;;;;;;;;;;;;;4878834;29;19939;-83
2022/08/07 02:55:38;;;;;;;;;;;;;;;;;;4896087;29;19936;-83
2022/08/07 02:58:26;;;;;;;;;;;;;;;;;;4895783;29;20021;-82
2022/08/07 03:00:54;;;;;;;;;;;;;;;;;;4894525;29;19931;-83
2022/08/07 03:03:22;;;;;;;;;;;;;;;;;;4897945;29;19943;-82
2022/08/07 03:05:51;;;;;;;;;;;;;;;;;;4911731;29;20402;-84
2022/08/07 03:08:19;;;;;;;;;;;;;;;;;;4907913;29;19934;-83
2022/08/07 03:10:53;;;;;;;;;;;;;;;;;;4895881;29;20293;-83
2022/08/07 03:13:26;;;;;;;;;;;;;;;;;;4894461;29;19927;-83
2022/08/07 03:15:53;;;;;;;;;;;;;;;;;;4911590;29;20022;-83
2022/08/07 03:18:23;;;;;;;;;;;;;;;;;;4876650;29;19940;-84
2022/08/07 03:20:50;;;;;;;;;;;;;;;;;;4886522;29;20023;-83
2022/08/07 03:23:19;;;;;;;;;;;;;;;;;;4907360;29;19937;-83
2022/08/07 03:25:47;;;;;;;;;;;;;;;;;;4895800;29;19928;-83
2022/08/07 03:28:24;;;;;;;;;;;;;;;;;;4908120;29;20321;-83
2022/08/07 03:31:19;;;;;;;;;;;;;;;;;;4877074;29;20002;-83
2022/08/07 03:33:52;;;;;;;;;;;;;;;;;;4895126;29;19938;-83
2022/08/07 03:36:19;;;;;;;;;;;;;;;;;;4898720;29;19998;-83
2022/08/07 03:38:47;;;;;;;;;;;;;;;;;;4887251;29;19939;-83
2022/08/07 03:41:15;;;;;;;;;;;;;;;;;;4894993;29;19931;-83
2022/08/07 03:43:43;;;;;;;;;;;;;;;;;;4909153;29;19971;-83
2022/08/07 03:46:25;;;;;;;;;;;;;;;;;;4884657;29;19935;-81
2022/08/07 03:48:53;;;;;;;;;;;;;;;;;;4878829;29;19972;-83
2022/08/07 03:51:31;;;;;;;;;;;;;;;;;;4903107;29;20305;-83
2022/08/07 03:54:13;;;;;;;;;;;;;;;;;;4910472;29;19927;-83
2022/08/07 03:57:03;;;;;;;;;;;;;;;;;;4877084;29;19927;-83
2022/08/07 03:59:33;;;;;;;;;;;;;;;;;;4894324;29;20031;-83
2022/08/07 04:02:01;;;;;;;;;;;;;;;;;;4910162;29;19938;-83
2022/08/07 04:04:28;;;;;;;;;;;;;;;;;;4902931;29;19978;-84
2022/08/07 04:07:01;;;;;;;;;;;;;;;;;;4890719;29;19931;-83
2022/08/07 04:09:28;;;;;;;;;;;;;;;;;;4893361;29;19966;-82
2022/08/07 04:12:11;;;;;;;;;;;;;;;;;;4933858;28;19915;-83
2022/08/07 04:14:55;;;;;;;;;;;;;;;;;;4918387;29;19916;-82
2022/08/07 04:17:22;;;;;;;;;;;;;;;;;;4916330;29;19927;-82
2022/08/07 04:19:52;;;;;;;;;;;;;;;;;;4915784;29;19916;-83
2022/08/07 04:22:24;;;;;;;;;;;;;;;;;;4923738;28;19915;-82
2022/08/07 04:24:54;;;;;;;;;;;;;;;;;;4930641;29;19929;-83
2022/08/07 04:27:21;;;;;;;;;;;;;;;;;;4915047;29;19920;-83
2022/08/07 04:29:53;;;;;;;;;;;;;;;;;;4916015;29;19931;-83
2022/08/07 04:32:34;;;;;;;;;;;;;;;;;;4917982;29;19916;-82
2022/08/07 04:35:03;;;;;;;;;;;;;;;;;;4942893;29;19961;-82
2022/08/07 04:37:31;;;;;;;;;;;;;;;;;;4944158;29;19931;-83
2022/08/07 04:40:20;;;;;;;;;;;;;;;;;;4918084;29;19916;-83
2022/08/07 04:42:47;;;;;;;;;;;;;;;;;;4936542;29;19928;-83
2022/08/07 04:45:17;;;;;;;;;;;;;;;;;;4923466;28;19916;-83
2022/08/07 04:48:05;;;;;;;;;;;;;;;;;;4908094;29;19916;-83
2022/08/07 04:50:36;;;;;;;;;;;;;;;;;;4928687;29;20180;-83
2022/08/07 04:53:14;;;;;;;;;;;;;;;;;;4935253;29;19931;-83
2022/08/07 04:55:54;;;;;;;;;;;;;;;;;;4937833;29;19931;-84
2022/08/07 04:58:41;;;;;;;;;;;;;;;;;;4953731;28;19916;-83
2022/08/07 05:01:28;;;;;;;;;;;;;;;;;;4926278;29;19919;-84
2022/08/07 05:03:57;;;;;;;;;;;;;;;;;;4936628;29;20014;-82
2022/08/07 05:06:32;;;;;;;;;;;;;;;;;;4934247;28;19947;-83
2022/08/07 05:09:10;;;;;;;;;;;;;;;;;;4934595;28;19915;-83
2022/08/07 05:11:40;;;;;;;;;;;;;;;;;;4934443;29;19915;-83
2022/08/07 05:14:26;;;;;;;;;;;;;;;;;;4918448;29;19926;-83
2022/08/07 05:17:13;;;;;;;;;;;;;;;;;;4915589;29;20011;-83
2022/08/07 05:20:00;;;;;;;;;;;;;;;;;;4917040;29;19956;-83
2022/08/07 05:22:31;;;;;;;;;;;;;;;;;;4902735;29;19928;-83
2022/08/07 05:24:58;;;;;;;;;;;;;;;;;;4888221;29;20216;-82
2022/08/07 05:27:26;;;;;;;;;;;;;;;;;;4922639;29;19971;-82
2022/08/07 05:30:14;;;;;;;;;;;;;;;;;;4906015;29;19974;-83
2022/08/07 05:32:41;;;;;;;;;;;;;;;;;;4921746;29;19931;-82
2022/08/07 05:35:08;;;;;;;;;;;;;;;;;;4920727;29;19931;-83
2022/08/07 05:37:36;;;;;;;;;;;;;;;;;;4921053;29;19935;-84
2022/08/07 05:40:05;;;;;;;;;;;;;;;;;;4905292;29;19927;-83
2022/08/07 05:42:45;;;;;;;;;;;;;;;;;;4903611;29;19963;-83
2022/08/07 05:45:22;;;;;;;;;;;;;;;;;;4904985;29;20342;-83
2022/08/07 05:47:58;;;;;;;;;;;;;;;;;;4887265;29;20133;-83
2022/08/07 05:50:28;;;;;;;;;;;;;;;;;;4922589;29;19978;-82
2022/08/07 05:52:56;;;;;;;;;;;;;;;;;;4900992;29;20014;-83
2022/08/07 05:55:23;;;;;;;;;;;;;;;;;;4885559;29;19954;-82
2022/08/07 05:57:50;;;;;;;;;;;;;;;;;;4903512;29;19931;-83
2022/08/07 06:00:18;;;;;;;;;;;;;;;;;;4903059;29;19931;-83
2022/08/07 06:02:52;;;;;;;;;;;;;;;;;;4902874;29;19932;-82
2022/08/07 06:05:20;;;;;;;;;;;;;;;;;;4888089;29;20402;-83
2022/08/07 06:07:55;;;;;;;;;;;;;;;;;;4903172;29;20190;-83
2022/08/07 06:10:41;;;;;;;;;;;;;;;;;;4902543;29;20024;-83
2022/08/07 06:13:09;;;;;;;;;;;;;;;;;;4887062;29;19975;-83
2022/08/07 06:15:40;;;;;;;;;;;;;;;;;;4902748;29;20421;-83
2022/08/07 06:18:11;;;;;;;;;;;;;;;;;;4902824;29;19927;-82
2022/08/07 06:20:39;;;;;;;;;;;;;;;;;;4908659;29;19966;-83
2022/08/07 06:23:17;;;;;;;;;;;;;;;;;;4901501;29;19928;-83
2022/08/07 06:26:04;;;;;;;;;;;;;;;;;;4887278;29;19954;-83
2022/08/07 06:28:32;;;;;;;;;;;;;;;;;;4903300;29;19979;-83
2022/08/07 06:30:59;;;;;;;;;;;;;;;;;;4889469;29;19927;-83
2022/08/07 06:33:28;;;;;;;;;;;;;;;;;;4919522;29;20325;-83
2022/08/07 06:35:55;;;;;;;;;;;;;;;;;;4903970;29;19959;-83
2022/08/07 06:38:43;;;;;;;;;;;;;;;;;;4887807;29;19975;-84
2022/08/07 06:41:26;;;;;;;;;;;;;;;;;;4921379;29;19965;-82
2022/08/07 06:44:13;;;;;;;;;;;;;;;;;;4923984;29;20280;-83
2022/08/07 06:46:40;;;;;;;;;;;;;;;;;;4907896;29;19932;-83
2022/08/07 06:49:07;;;;;;;;;;;;;;;;;;4920296;29;19931;-84
2022/08/07 06:51:37;;;;;;;;;;;;;;;;;;4924803;29;19946;-84
2022/08/07 06:54:16;;;;;;;;;;;;;;;;;;4927977;29;19939;-83
2022/08/07 06:57:03;;;;;;;;;;;;;;;;;;4911334;29;19931;-84
2022/08/07 06:59:34;;;;;;;;;;;;;;;;;;4912486;29;19927;-84
2022/08/07 07:02:23;;;;;;;;;;;;;;;;;;4916750;29;19979;-83
2022/08/07 07:05:10;;;;;;;;;;;;;;;;;;4901520;29;20031;-84
2022/08/07 07:07:38;;;;;;;;;;;;;;;;;;4926310;23;20521;-83
2022/08/07 07:10:26;;;;;;;;;;;;;;;;;;4883368;29;19935;-83
2022/08/07 07:12:53;;;;;;;;;;;;;;;;;;4881638;29;20394;-83
2022/08/07 07:15:20;;;;;;;;;;;;;;;;;;4890937;29;19931;-83
2022/08/07 07:17:50;;;;;;;;;;;;;;;;;;4894005;29;20027;-83
2022/08/07 07:20:18;;;;;;;;;;;;;;;;;;4898676;29;19938;-83
2022/08/07 07:22:48;;;;;;;;;;;;;;;;;;4908671;29;19927;-83
2022/08/07 07:25:35;;;;;;;;;;;;;;;;;;4911975;29;20002;-82
2022/08/07 07:28:23;;;;;;;;;;;;;;;;;;4908929;29;19938;-83
2022/08/07 07:30:56;;;;;;;;;;;;;;;;;;4907864;29;20046;-80
2022/08/07 07:33:23;;;;;;;;;;;;;;;;;;4900746;29;20082;-82
2022/08/07 07:35:51;;;;;;;;;;;;;;;;;;4899565;29;20039;-82
2022/08/07 07:38:30;;;;;;;;;;;;;;;;;;4903087;29;19931;-84
2022/08/07 07:40:57;;;;;;;;;;;;;;;;;;4891466;29;19931;-83
2022/08/07 07:43:28;;;;;;;;;;;;;;;;;;4878397;29;19943;-84
2022/08/07 07:46:14;;;;;;;;;;;;;;;;;;4889793;29;19939;-84
2022/08/07 07:49:01;;;;;;;;;;;;;;;;;;4891491;29;19931;-84
2022/08/07 07:51:47;;;;;;;;;;;;;;;;;;4873583;29;19932;-84
2022/08/07 07:54:24;;;;;;;;;;;;;;;;;;4863758;29;19927;-84
2022/08/07 07:56:51;;;;;;;;;;;;;;;;;;4879268;29;19943;-83
2022/08/07 07:59:19;;;;;;;;;;;;;;;;;;4882422;29;19932;-84
2022/08/07 08:01:49;;;;;;;;;;;;;;;;;;4883557;29;20777;-83
2022/08/07 08:04:30;;;;;;;;;;;;;;;;;;4868093;29;20283;-84
2022/08/07 08:06:59;;;;;;;;;;;;;;;;;;4883964;29;19934;-84
2022/08/07 08:09:33;;;;;;;;;;;;;;;;;;4889514;29;19932;-83
2022/08/07 08:12:18;;;;;;;;;;;;;;;;;;4878237;29;19934;-83
2022/08/07 08:15:05;;;;;;;;;;;;;;;;;;4877782;29;19931;-82
2022/08/07 08:17:33;;;;;;;;;;;;;;;;;;4883254;29;20367;-83
2022/08/07 08:20:20;;;;;;;;;;;;;;;;;;4888705;29;19927;-84
2022/08/07 08:28:32;;;;;;;;;;;;;;;;;;4878343;29;20014;-84
2022/08/07 08:31:05;;;;;;;;;;;;;;;;;;4877906;29;19937;-84
2022/08/07 08:33:33;;;;;;;;;;;;;;;;;;4885152;29;19954;-84
2022/08/07 08:36:00;;;;;;;;;;;;;;;;;;4884279;29;19935;-84
2022/08/07 08:38:27;;;;;;;;;;;;;;;;;;4878141;29;19970;-82
2022/08/07 08:40:56;;;;;;;;;;;;;;;;;;4882493;29;20391;-85
2022/08/07 08:43:23;;;;;;;;;;;;;;;;;;4881396;29;19951;-84
2022/08/07 08:45:58;;;;;;;;;;;;;;;;;;4890165;29;19938;-85
2022/08/07 08:48:27;;;;;;;;;;;;;;;;;;4887246;29;19967;-84
2022/08/07 08:50:59;;;;;;;;;;;;;;;;;;4886644;29;19931;-84
2022/08/07 08:53:26;;;;;;;;;;;;;;;;;;4882457;29;20317;-83
2022/08/07 08:55:55;;;;;;;;;;;;;;;;;;4881911;29;19932;-83
2022/08/07 08:58:24;;;;;;;;;;;;;;;;;;4875360;29;19936;-80
2022/08/07 09:00:55;;;;;;;;;;;;;;;;;;4884481;29;19954;-84
2022/08/07 09:03:22;;;;;;;;;;;;;;;;;;4885484;29;19966;-85
2022/08/07 09:05:49;;;;;;;;;;;;;;;;;;4883724;29;19927;-84
2022/08/07 09:08:17;;;;;;;;;;;;;;;;;;4880539;29;20032;-83
2022/08/07 09:10:54;;;;;;;;;;;;;;;;;;4881713;29;19939;-84
2022/08/07 09:13:25;;;;;;;;;;;;;;;;;;4886242;29;19932;-84
2022/08/07 09:16:03;;;;;;;;;;;;;;;;;;4869300;29;19931;-83
2022/08/07 09:18:47;;;;;;;;;;;;;;;;;;4861220;29;19936;-83
2022/08/07 09:21:19;;;;;;;;;;;;;;;;;;4875013;29;19932;-85
2022/08/07 09:24:00;;;;;;;;;;;;;;;;;;4876091;29;19928;-83
2022/08/07 09:26:47;;;;;;;;;;;;;;;;;;4883635;29;19956;-84
2022/08/07 09:29:17;;;;;;;;;;;;;;;;;;4885536;29;19928;-84
2022/08/07 09:32:05;;;;;;;;;;;;;;;;;;4881997;29;19928;-84
2022/08/07 09:34:44;;;;;;;;;;;;;;;;;;4885693;29;19953;-84
2022/08/07 09:37:20;;;;;;;;;;;;;;;;;;4883582;29;19932;-84
2022/08/07 09:40:02;;;;;;;;;;;;;;;;;;4878074;29;19929;-84
2022/08/07 09:42:29;;;;;;;;;;;;;;;;;;4887987;29;19927;-84
2022/08/07 09:44:59;;;;;;;;;;;;;;;;;;4883734;29;19932;-84
2022/08/07 09:47:46;;;;;;;;;;;;;;;;;;4878022;29;19954;-84
2022/08/07 09:50:22;;;;;;;;;;;;;;;;;;4890237;29;19995;-83
2022/08/07 09:52:50;;;;;;;;;;;;;;;;;;4888237;29;19934;-84
2022/08/07 09:55:18;;;;;;;;;;;;;;;;;;4884277;29;20430;-83
2022/08/07 09:57:56;;;;;;;;;;;;;;;;;;4880429;29;20345;-84
2022/08/07 10:00:23;;;;;;;;;;;;;;;;;;4889963;29;19943;-84
2022/08/07 10:02:56;;;;;;;;;;;;;;;;;;4883912;29;19928;-84
2022/08/07 10:05:23;;;;;;;;;;;;;;;;;;4861802;29;19935;-84
2022/08/07 10:08:10;;;;;;;;;;;;;;;;;;4884387;29;19975;-84
2022/08/07 10:10:46;;;;;;;;;;;;;;;;;;4883945;29;19935;-84
2022/08/07 10:13:34;;;;;;;;;;;;;;;;;;4865026;29;20279;-83
2022/08/07 10:16:21;;;;;;;;;;;;;;;;;;4859937;29;19954;-82
2022/08/07 10:18:53;;;;;;;;;;;;;;;;;;4891443;29;19928;-83
2022/08/07 10:21:31;;;;;;;;;;;;;;;;;;4856612;29;20039;-84
2022/08/07 10:24:18;;;;;;;;;;;;;;;;;;4887617;29;19950;-83
2022/08/07 10:26:48;;;;;;;;;;;;;;;;;;4876271;29;19932;-85
2022/08/07 10:29:19;;;;;;;;;;;;;;;;;;4882368;29;19928;-84
2022/08/07 10:32:10;;;;;;;;;;;;;;;;;;4856166;29;20030;-84
2022/08/07 10:34:58;;;;;;;;;;;;;;;;;;4873291;29;20034;-84
2022/08/07 10:37:28;;;;;;;;;;;;;;;;;;4876288;29;20362;-83
2022/08/07 10:40:15;;;;;;;;;;;;;;;;;;4876532;29;19932;-84
2022/08/07 10:42:42;;;;;;;;;;;;;;;;;;4878818;29;20405;-84
2022/08/07 10:45:10;;;;;;;;;;;;;;;;;;4876788;29;20314;-84
2022/08/07 10:47:37;;;;;;;;;;;;;;;;;;4877094;29;19935;-84
2022/08/07 10:50:17;;;;;;;;;;;;;;;;;;4880719;29;20401;-84
2022/08/07 10:52:45;;;;;;;;;;;;;;;;;;4879716;29;19936;-84
2022/08/07 10:55:14;;;;;;;;;;;;;;;;;;4880736;29;19928;-84
2022/08/07 10:57:53;;;;;;;;;;;;;;;;;;4875978;29;20020;-84
2022/08/07 11:00:22;;;;;;;;;;;;;;;;;;4876736;29;19998;-85
2022/08/07 11:03:08;;;;;;;;;;;;;;;;;;4877601;29;19928;-84
2022/08/07 11:05:39;;;;;;;;;;;;;;;;;;4878008;29;19932;-85
2022/08/07 11:08:17;;;;;;;;;;;;;;;;;;4874355;29;19931;-83
2022/08/07 11:10:44;;;;;;;;;;;;;;;;;;4877881;29;19927;-85
2022/08/07 11:13:16;;;;;;;;;;;;;;;;;;4877911;29;19931;-84
2022/08/07 11:16:03;;;;;;;;;;;;;;;;;;4873836;29;19952;-85
2022/08/07 11:18:34;;;;;;;;;;;;;;;;;;4882671;29;19932;-83
2022/08/07 11:21:05;;;;;;;;;;;;;;;;;;4844307;29;19945;-84
2022/08/07 11:23:39;;;;;;;;;;;;;;;;;;4877244;29;20058;-85
2022/08/07 11:26:16;;;;;;;;;;;;;;;;;;4861466;29;19975;-85
2022/08/07 11:28:57;;;;;;;;;;;;;;;;;;4876613;29;20026;-82
2022/08/07 11:34:23;;;;;;;;;;;;;;;;;;4876095;29;19935;-84
2022/08/07 11:36:52;;;;;;;;;;;;;;;;;;4859651;29;19938;-85
2022/08/07 11:39:25;;;;;;;;;;;;;;;;;;4887862;29;19932;-84
2022/08/07 11:41:53;;;;;;;;;;;;;;;;;;4865637;29;20355;-85
2022/08/07 11:44:28;;;;;;;;;;;;;;;;;;4875737;29;19927;-84
2022/08/07 11:46:59;;;;;;;;;;;;;;;;;;4838356;29;20394;-85
2022/08/07 11:49:33;;;;;;;;;;;;;;;;;;4872961;29;20556;-84
2022/08/07 11:52:21;;;;;;;;;;;;;;;;;;4869289;29;20050;-88
2022/08/07 11:54:55;;;;;;;;;;;;;;;;;;4867728;29;19932;-84
2022/08/07 11:57:22;;;;;;;;;;;;;;;;;;4869082;29;20425;-84
2022/08/07 12:00:11;;;;;;;;;;;;;;;;;;4870155;29;19939;-86
2022/08/07 12:02:45;;;;;;;;;;;;;;;;;;4869778;29;19928;-85
2022/08/07 12:05:29;;;;;;;;;;;;;;;;;;4848802;29;20035;-84
2022/08/07 12:08:16;;;;;;;;;;;;;;;;;;4867242;29;20338;-85
2022/08/07 12:15:26;;;;;;;;;;;;;;;;;;4816788;29;19925;-85
2022/08/07 12:28:21;;;;;;;;;;;;;;;;;;4871102;29;19947;-71
2022/08/07 12:30:57;;;;;;;;;;;;;;;;;;4854916;29;19981;-72
2022/08/07 12:33:24;;;;;;;;;;;;;;;;;;4860498;29;19928;-73
2022/08/07 12:35:57;;;;;;;;;;;;;;;;;;4860812;29;20414;-71
2022/08/07 12:38:24;;;;;;;;;;;;;;;;;;4851068;29;19951;-71
2022/08/07 12:41:04;;;;;;;;;;;;;;;;;;4861064;29;19928;-71
2022/08/07 12:43:32;;;;;;;;;;;;;;;;;;4862307;29;19932;-72
2022/08/07 12:46:19;;;;;;;;;;;;;;;;;;4856843;29;20034;-72
2022/08/07 12:48:52;;;;;;;;;;;;;;;;;;4864084;29;19932;-71
2022/08/07 12:51:21;;;;;;;;;;;;;;;;;;4844630;29;20334;-72
2022/08/07 12:53:48;;;;;;;;;;;;;;;;;;4854093;29;20022;-71
2022/08/07 12:56:29;;;;;;;;;;;;;;;;;;4849057;29;20705;-72
2022/08/07 12:58:56;;;;;;;;;;;;;;;;;;4855016;29;19932;-72
2022/08/07 13:01:25;;;;;;;;;;;;;;;;;;4856166;29;19932;-72
2022/08/07 13:03:55;;;;;;;;;;;;;;;;;;4852925;29;20470;-72
2022/08/07 13:06:29;;;;;;;;;;;;;;;;;;4878510;23;20023;-74
2022/08/07 13:08:58;;;;;;;;;;;;;;;;;;4899122;29;19936;-75
2022/08/07 13:11:26;;;;;;;;;;;;;;;;;;4897421;29;19936;-74
2022/08/07 13:13:53;;;;;;;;;;;;;;;;;;4892676;29;19932;-77
2022/08/07 13:16:20;;;;;;;;;;;;;;;;;;4887984;29;19935;-75
2022/08/07 13:18:48;;;;;;;;;;;;;;;;;;4891066;29;19983;-74
2022/08/07 13:21:17;;;;;;;;;;;;;;;;;;4889084;29;20356;-74
2022/08/07 13:24:04;;;;;;;;;;;;;;;;;;4906192;29;19939;-75
2022/08/07 13:26:31;;;;;;;;;;;;;;;;;;4892421;29;19938;-74
2022/08/07 13:28:59;;;;;;;;;;;;;;;;;;4890207;29;19932;-79
2022/08/07 13:31:26;;;;;;;;;;;;;;;;;;4893478;29;20364;-75
2022/08/07 13:33:58;;;;;;;;;;;;;;;;;;4894207;29;19931;-77
2022/08/07 13:36:46;;;;;;;;;;;;;;;;;;4889164;29;19931;-77
2022/08/07 13:39:13;;;;;;;;;;;;;;;;;;4878859;29;20374;-77
2022/08/07 13:41:54;;;;;;;;;;;;;;;;;;4889953;29;20319;-76
2022/08/07 13:44:21;;;;;;;;;;;;;;;;;;4892795;29;19932;-77
2022/08/07 13:46:53;;;;;;;;;;;;;;;;;;4890970;29;19932;-77
2022/08/07 13:49:21;;;;;;;;;;;;;;;;;;4895341;29;19927;-77
2022/08/07 13:52:08;;;;;;;;;;;;;;;;;;4892060;29;19935;-76
2022/08/07 13:54:53;;;;;;;;;;;;;;;;;;4895313;29;19932;-76
2022/08/07 13:57:20;;;;;;;;;;;;;;;;;;4891635;29;19937;-77
2022/08/07 13:59:53;;;;;;;;;;;;;;;;;;4886111;29;19932;-77
2022/08/07 14:02:21;;;;;;;;;;;;;;;;;;4892447;29;19958;-76
2022/08/07 14:04:59;;;;;;;;;;;;;;;;;;4893963;29;19995;-76
2022/08/07 14:07:27;;;;;;;;;;;;;;;;;;4883121;29;19932;-77
2022/08/07 14:09:54;;;;;;;;;;;;;;;;;;4910624;29;19931;-76
2022/08/07 14:12:44;;;;;;;;;;;;;;;;;;4888617;29;20007;-76
2022/08/07 14:15:15;;;;;;;;;;;;;;;;;;4890189;29;19939;-77
2022/08/07 14:17:43;;;;;;;;;;;;;;;;;;4874965;29;19935;-77
2022/08/07 14:20:30;;;;;;;;;;;;;;;;;;4909259;29;20391;-77
2022/08/07 14:23:10;;;;;;;;;;;;;;;;;;4875178;29;19927;-78
2022/08/07 14:25:37;;;;;;;;;;;;;;;;;;4896704;29;20504;-77
2022/08/07 14:28:06;;;;;;;;;;;;;;;;;;4896671;29;19935;-76
2022/08/07 14:30:39;;;;;;;;;;;;;;;;;;4895442;29;19959;-76
2022/08/07 14:33:07;;;;;;;;;;;;;;;;;;4894961;29;20426;-77
2022/08/07 14:35:34;;;;;;;;;;;;;;;;;;4884270;29;19931;-77
2022/08/07 14:38:12;;;;;;;;;;;;;;;;;;4872247;29;19955;-75
2022/08/07 14:40:53;;;;;;;;;;;;;;;;;;4873558;29;20380;-76
2022/08/07 14:43:20;;;;;;;;;;;;;;;;;;4897443;29;19997;-75
2022/08/07 14:46:08;;;;;;;;;;;;;;;;;;4888706;29;19998;-77
2022/08/07 14:48:35;;;;;;;;;;;;;;;;;;4875875;29;19937;-76
2022/08/07 14:51:02;;;;;;;;;;;;;;;;;;4886289;29;20021;-75
2022/08/07 14:53:30;;;;;;;;;;;;;;;;;;4891452;29;19935;-77
2022/08/07 14:56:18;;;;;;;;;;;;;;;;;;4888824;29;19943;-76
2022/08/07 14:58:56;;;;;;;;;;;;;;;;;;4888045;29;19935;-76
2022/08/07 15:01:23;;;;;;;;;;;;;;;;;;4888265;29;19931;-75
2022/08/07 15:03:51;;;;;;;;;;;;;;;;;;4887479;29;19931;-77
2022/08/07 15:06:19;;;;;;;;;;;;;;;;;;4888564;29;19943;-76
2022/08/07 15:08:49;;;;;;;;;;;;;;;;;;4886348;29;20380;-77
2022/08/07 15:11:20;;;;;;;;;;;;;;;;;;4881322;29;20470;-75
2022/08/07 15:14:08;;;;;;;;;;;;;;;;;;4887684;29;19932;-76
2022/08/07 15:16:36;;;;;;;;;;;;;;;;;;4882894;29;20099;-76
2022/08/07 15:19:04;;;;;;;;;;;;;;;;;;4884756;29;20415;-76
2022/08/07 15:21:31;;;;;;;;;;;;;;;;;;4871202;29;19932;-76
2022/08/07 15:24:11;;;;;;;;;;;;;;;;;;4883747;29;20019;-76
2022/08/07 15:26:58;;;;;;;;;;;;;;;;;;4886174;29;19932;-77
2022/08/07 15:29:27;;;;;;;;;;;;;;;;;;4879129;29;19931;-77
2022/08/07 15:32:14;;;;;;;;;;;;;;;;;;4886079;29;19938;-77
2022/08/07 15:34:42;;;;;;;;;;;;;;;;;;4885829;29;19970;-75
2022/08/07 15:37:17;;;;;;;;;;;;;;;;;;4897297;29;20059;-77
2022/08/07 15:39:54;;;;;;;;;;;;;;;;;;4868360;29;19939;-78
2022/08/07 15:42:24;;;;;;;;;;;;;;;;;;4885326;29;20284;-76
2022/08/07 15:45:12;;;;;;;;;;;;;;;;;;4898366;29;20455;-77
2022/08/07 15:47:39;;;;;;;;;;;;;;;;;;4885959;29;19927;-75
2022/08/07 15:50:26;;;;;;;;;;;;;;;;;;4903453;29;19931;-76
2022/08/07 15:53:14;;;;;;;;;;;;;;;;;;4901813;29;19935;-76
2022/08/07 15:55:41;;;;;;;;;;;;;;;;;;4902190;29;19959;-76
2022/08/07 15:58:30;;;;;;;;;;;;;;;;;;4902793;29;19966;-75
2022/08/07 16:00:58;;;;;;;;;;;;;;;;;;4903572;29;19938;-76
2022/08/07 16:03:26;;;;;;;;;;;;;;;;;;4905835;29;19923;-76
2022/08/07 16:06:13;;;;;;;;;;;;;;;;;;4894545;29;20498;-77
2022/08/07 16:08:42;;;;;;;;;;;;;;;;;;4882089;29;19960;-77
2022/08/07 16:11:11;;;;;;;;;;;;;;;;;;4881914;29;19939;-76
2022/08/07 16:13:53;;;;;;;;;;;;;;;;;;4887333;29;20014;-77
2022/08/07 16:16:25;;;;;;;;;;;;;;;;;;4882274;29;19932;-77
2022/08/07 16:19:09;;;;;;;;;;;;;;;;;;4886722;29;19932;-75
2022/08/07 16:21:39;;;;;;;;;;;;;;;;;;4887880;29;19954;-76
2022/08/07 16:24:10;;;;;;;;;;;;;;;;;;4888031;29;19935;-76
2022/08/07 16:26:58;;;;;;;;;;;;;;;;;;4882899;29;19931;-81
2022/08/07 16:29:26;;;;;;;;;;;;;;;;;;4881063;29;20384;-81
2022/08/07 16:32:13;;;;;;;;;;;;;;;;;;4880388;29;19938;-81
2022/08/07 16:34:51;;;;;;;;;;;;;;;;;;4882510;29;20335;-80
2022/08/07 16:37:19;;;;;;;;;;;;;;;;;;4884902;29;19938;-80
2022/08/07 16:40:06;;;;;;;;;;;;;;;;;;4875819;29;19932;-81
2022/08/07 16:42:37;;;;;;;;;;;;;;;;;;4884218;29;19950;-76
2022/08/07 16:45:05;;;;;;;;;;;;;;;;;;4883750;29;19939;-77
2022/08/07 16:47:45;;;;;;;;;;;;;;;;;;4872812;29;19932;-77
2022/08/07 16:50:19;;;;;;;;;;;;;;;;;;4881629;29;19946;-77
2022/08/07 16:53:03;;;;;;;;;;;;;;;;;;4881897;29;19963;-77
2022/08/07 16:55:51;;;;;;;;;;;;;;;;;;4881182;29;19931;-75
2022/08/07 16:58:18;;;;;;;;;;;;;;;;;;4890652;29;19943;-76
2022/08/07 17:00:46;;;;;;;;;;;;;;;;;;4888990;29;19967;-77
2022/08/07 17:03:13;;;;;;;;;;;;;;;;;;4894060;29;19932;-77
2022/08/07 17:05:44;;;;;;;;;;;;;;;;;;4884455;29;20305;-77
2022/08/07 17:08:31;;;;;;;;;;;;;;;;;;4886794;29;20034;-76
2022/08/07 17:11:17;;;;;;;;;;;;;;;;;;4888762;29;19984;-77
2022/08/07 17:13:44;;;;;;;;;;;;;;;;;;4869998;29;19970;-77
2022/08/07 17:16:32;;;;;;;;;;;;;;;;;;4887408;29;19942;-78
2022/08/07 17:18:59;;;;;;;;;;;;;;;;;;4869153;29;19939;-76
2022/08/07 17:21:27;;;;;;;;;;;;;;;;;;4887452;29;19979;-76
2022/08/07 17:23:55;;;;;;;;;;;;;;;;;;4892513;29;19937;-77
2022/08/07 17:26:22;;;;;;;;;;;;;;;;;;4860337;29;19987;-76
2022/08/07 17:28:57;;;;;;;;;;;;;;;;;;4881877;29;20457;-77
2022/08/07 17:31:24;;;;;;;;;;;;;;;;;;4886973;29;19937;-77
2022/08/07 17:33:52;;;;;;;;;;;;;;;;;;4877637;29;19932;-77
2022/08/07 17:36:39;;;;;;;;;;;;;;;;;;4875926;29;20022;-77
2022/08/07 17:39:24;;;;;;;;;;;;;;;;;;4892828;29;20340;-76
2022/08/07 17:41:51;;;;;;;;;;;;;;;;;;4889885;29;19935;-75
2022/08/07 17:44:29;;;;;;;;;;;;;;;;;;4902676;29;20264;-77
2022/08/07 17:47:07;;;;;;;;;;;;;;;;;;4888496;29;20376;-77
2022/08/07 17:49:35;;;;;;;;;;;;;;;;;;4888085;29;20023;-77
2022/08/07 17:52:10;;;;;;;;;;;;;;;;;;4881098;29;20026;-76
2022/08/07 17:54:40;;;;;;;;;;;;;;;;;;4889425;29;19935;-76